createdAt,value
2022-11-05T00:00:22.961Z,10.21
2022-11-05T00:01:23.007Z,10.19
2022-11-05T00:02:22.893Z,10.21
2022-11-05T00:03:22.980Z,10.14
2022-11-05T00:04:28.185Z,10.18
2022-11-05T00:05:22.852Z,10.25
2022-11-05T00:06:22.794Z,10.18
2022-11-05T00:07:22.774Z,10.21
2022-11-05T00:08:22.750Z,10.28
2022-11-05T00:09:22.723Z,10.24
2022-11-05T00:10:22.703Z,10.25
2022-11-05T00:11:22.678Z,10.14
2022-11-05T00:12:22.664Z,10.21
2022-11-05T00:13:22.641Z,10.21
2022-11-05T00:14:22.608Z,10.15
2022-11-05T00:15:22.586Z,10.21
2022-11-05T00:16:22.585Z,10.28
2022-11-05T00:17:22.557Z,10.34
2022-11-05T00:18:22.515Z,10.21
2022-11-05T00:19:22.490Z,10.33
2022-11-05T00:20:22.494Z,10.12
2022-11-05T00:21:22.441Z,10.24
2022-11-05T00:22:22.421Z,10.18
2022-11-05T00:23:22.395Z,10.14
2022-11-05T00:24:24.326Z,10.19
2022-11-05T00:25:22.372Z,10.21
2022-11-05T00:26:22.324Z,10.25
2022-11-05T00:27:22.306Z,10.21
2022-11-05T00:28:22.285Z,10.24
2022-11-05T00:29:22.254Z,10.21
2022-11-05T00:30:22.233Z,10.26
2022-11-05T00:31:22.204Z,10.17
2022-11-05T00:32:22.205Z,10.25
2022-11-05T00:33:22.160Z,10.28
2022-11-05T00:34:22.136Z,10.22
2022-11-05T00:35:22.119Z,10.21
2022-11-05T00:36:22.123Z,10.25
2022-11-05T00:37:22.078Z,10.26
2022-11-05T00:38:22.044Z,10.19
2022-11-05T00:39:22.023Z,10.21
2022-11-05T00:40:21.995Z,10.30
2022-11-05T00:41:21.969Z,10.26
2022-11-05T00:42:21.950Z,10.30
2022-11-05T00:43:21.924Z,10.28
2022-11-05T00:44:21.903Z,10.30
2022-11-05T00:45:21.887Z,10.24
2022-11-05T00:46:21.849Z,10.36
2022-11-05T00:47:21.838Z,10.36
2022-11-05T00:48:21.808Z,10.32
2022-11-05T00:49:21.784Z,10.37
2022-11-05T00:50:21.756Z,10.33
2022-11-05T00:51:21.733Z,10.34
2022-11-05T00:52:21.734Z,10.34
2022-11-05T00:53:21.695Z,10.33
2022-11-05T00:54:21.679Z,10.36
2022-11-05T00:55:21.659Z,10.39
2022-11-05T00:56:21.617Z,10.37
2022-11-05T00:57:21.594Z,10.40
2022-11-05T00:58:21.572Z,10.36
2022-11-05T00:59:21.549Z,10.47
2022-11-05T01:00:21.527Z,10.36
2022-11-05T01:01:21.621Z,10.42
2022-11-05T01:02:21.531Z,10.40
2022-11-05T01:03:21.455Z,10.40
2022-11-05T01:04:21.448Z,10.42
2022-11-05T01:05:21.434Z,10.42
2022-11-05T01:06:21.382Z,10.46
2022-11-05T01:07:21.365Z,10.44
2022-11-05T01:08:21.335Z,10.47
2022-11-05T01:09:21.316Z,10.43
2022-11-05T01:10:21.290Z,10.46
2022-11-05T01:11:21.283Z,10.43
2022-11-05T01:12:21.255Z,10.40
2022-11-05T01:13:21.219Z,10.46
2022-11-05T01:14:21.191Z,10.43
2022-11-05T01:15:21.173Z,10.42
2022-11-05T01:16:21.152Z,10.47
2022-11-05T01:17:21.124Z,10.42
2022-11-05T01:18:21.113Z,10.42
2022-11-05T01:19:21.077Z,10.40
2022-11-05T01:20:21.054Z,10.37
2022-11-05T01:21:21.042Z,10.36
2022-11-05T01:22:21.006Z,10.39
2022-11-05T01:23:21.464Z,10.40
2022-11-05T01:24:20.967Z,10.40
2022-11-05T01:25:20.935Z,10.46
2022-11-05T01:26:20.909Z,10.42
2022-11-05T01:27:20.890Z,10.37
2022-11-05T01:28:20.883Z,10.32
2022-11-05T01:29:20.862Z,10.40
2022-11-05T01:30:20.816Z,10.36
2022-11-05T01:31:20.811Z,10.42
2022-11-05T01:32:20.771Z,10.34
2022-11-05T01:33:20.770Z,10.42
2022-11-05T01:34:20.753Z,10.32
2022-11-05T01:35:20.701Z,10.36
2022-11-05T01:36:20.688Z,10.33
2022-11-05T01:37:20.755Z,10.42
2022-11-05T01:38:20.630Z,10.33
2022-11-05T01:39:20.617Z,10.32
2022-11-05T01:40:20.616Z,10.37
2022-11-05T01:41:20.561Z,10.34
2022-11-05T01:42:20.541Z,10.32
2022-11-05T01:43:20.511Z,10.26
2022-11-05T01:44:20.495Z,10.32
2022-11-05T01:45:20.490Z,10.32
2022-11-05T01:46:20.445Z,10.37
2022-11-05T01:47:20.476Z,10.30
2022-11-05T01:48:20.395Z,10.34
2022-11-05T01:49:20.375Z,10.33
2022-11-05T01:50:20.359Z,10.42
2022-11-05T01:51:20.339Z,10.44
2022-11-05T01:52:20.304Z,10.39
2022-11-05T01:53:20.280Z,10.36
2022-11-05T01:54:20.252Z,10.43
2022-11-05T01:55:20.236Z,10.33
2022-11-05T01:56:20.227Z,10.33
2022-11-05T01:57:20.189Z,10.33
2022-11-05T01:58:20.154Z,10.36
2022-11-05T01:59:20.155Z,10.32
2022-11-05T02:00:20.133Z,10.43
2022-11-05T02:01:20.249Z,10.30
2022-11-05T02:02:20.186Z,10.30
2022-11-05T02:03:20.055Z,10.26
2022-11-05T02:04:20.031Z,10.37
2022-11-05T02:05:19.990Z,10.30
2022-11-05T02:06:19.982Z,10.37
2022-11-05T02:07:19.945Z,10.32
2022-11-05T02:08:19.953Z,10.26
2022-11-05T02:09:19.898Z,10.30
2022-11-05T02:10:19.875Z,10.24
2022-11-05T02:11:19.854Z,10.22
2022-11-05T02:12:19.826Z,10.19
2022-11-05T02:13:19.801Z,10.22
2022-11-05T02:14:19.781Z,10.21
2022-11-05T02:15:19.754Z,10.21
2022-11-05T02:16:19.731Z,10.28
2022-11-05T02:17:19.709Z,10.24
2022-11-05T02:18:19.694Z,10.22
2022-11-05T02:19:19.671Z,10.21
2022-11-05T02:20:19.635Z,10.22
2022-11-05T02:21:19.617Z,10.22
2022-11-05T02:22:19.588Z,10.24
2022-11-05T02:23:19.564Z,10.24
2022-11-05T02:24:19.542Z,10.25
2022-11-05T02:25:19.536Z,10.24
2022-11-05T02:26:19.489Z,10.26
2022-11-05T02:27:19.468Z,10.17
2022-11-05T02:28:19.452Z,10.24
2022-11-05T02:29:19.456Z,10.22
2022-11-05T02:30:19.403Z,10.22
2022-11-05T02:31:19.379Z,10.15
2022-11-05T02:32:19.357Z,10.22
2022-11-05T02:33:19.329Z,10.21
2022-11-05T02:34:19.306Z,10.24
2022-11-05T02:35:19.293Z,10.21
2022-11-05T02:36:19.255Z,10.21
2022-11-05T02:37:19.232Z,10.24
2022-11-05T02:38:19.216Z,10.26
2022-11-05T02:39:19.185Z,10.22
2022-11-05T02:40:19.219Z,10.17
2022-11-05T02:41:19.141Z,10.15
2022-11-05T02:42:19.130Z,10.24
2022-11-05T02:43:19.094Z,10.15
2022-11-05T02:44:19.074Z,10.22
2022-11-05T02:45:19.041Z,10.22
2022-11-05T02:46:19.045Z,10.21
2022-11-05T02:47:19.008Z,10.15
2022-11-05T02:48:18.967Z,10.19
2022-11-05T02:49:18.951Z,10.18
2022-11-05T02:50:18.944Z,10.18
2022-11-05T02:51:18.900Z,10.18
2022-11-05T02:52:18.887Z,10.09
2022-11-05T02:53:18.851Z,10.10
2022-11-05T02:54:18.833Z,10.15
2022-11-05T02:55:18.805Z,10.09
2022-11-05T02:56:18.788Z,10.06
2022-11-05T02:57:18.760Z,10.03
2022-11-05T02:58:18.737Z,10.14
2022-11-05T02:59:18.712Z,9.99
2022-11-05T03:00:18.685Z,9.96
2022-11-05T03:01:18.770Z,10.01
2022-11-05T03:02:18.756Z,9.93
2022-11-05T03:03:18.617Z,9.96
2022-11-05T03:04:18.592Z,10.03
2022-11-05T03:05:18.565Z,10.01
2022-11-05T03:06:18.566Z,10.06
2022-11-05T03:07:18.523Z,10.00
2022-11-05T03:08:18.498Z,10.06
2022-11-05T03:09:18.476Z,10.01
2022-11-05T03:10:18.449Z,10.00
2022-11-05T03:11:18.423Z,10.00
2022-11-05T03:12:18.400Z,10.01
2022-11-05T03:13:18.376Z,9.97
2022-11-05T03:14:18.356Z,9.93
2022-11-05T03:15:18.331Z,9.89
2022-11-05T03:16:18.331Z,9.97
2022-11-05T03:17:18.283Z,9.99
2022-11-05T03:18:18.259Z,9.97
2022-11-05T03:19:18.249Z,9.99
2022-11-05T03:20:18.215Z,10.01
2022-11-05T03:21:18.185Z,10.01
2022-11-05T03:22:18.166Z,10.00
2022-11-05T03:23:18.135Z,10.03
2022-11-05T03:24:18.118Z,9.99
2022-11-05T03:25:18.093Z,10.09
2022-11-05T03:26:18.066Z,10.00
2022-11-05T03:27:18.047Z,10.00
2022-11-05T03:28:18.019Z,10.00
2022-11-05T03:29:17.999Z,10.01
2022-11-05T03:30:17.968Z,10.03
2022-11-05T03:31:17.949Z,9.99
2022-11-05T03:32:17.920Z,10.07
2022-11-05T03:33:17.910Z,9.94
2022-11-05T03:34:17.887Z,10.07
2022-11-05T03:35:17.857Z,10.03
2022-11-05T03:36:17.829Z,10.07
2022-11-05T03:37:17.816Z,10.10
2022-11-05T03:38:17.781Z,10.10
2022-11-05T03:39:17.758Z,10.06
2022-11-05T03:40:17.733Z,10.04
2022-11-05T03:41:17.726Z,10.09
2022-11-05T03:42:17.688Z,10.07
2022-11-05T03:43:17.662Z,10.09
2022-11-05T03:44:17.644Z,10.07
2022-11-05T03:45:17.634Z,10.06
2022-11-05T03:46:17.611Z,10.15
2022-11-05T03:47:17.570Z,10.15
2022-11-05T03:48:17.570Z,10.06
2022-11-05T03:49:17.525Z,10.10
2022-11-05T03:50:17.493Z,10.07
2022-11-05T03:51:17.476Z,10.10
2022-11-05T03:52:17.447Z,10.10
2022-11-05T03:53:17.435Z,10.09
2022-11-05T03:54:17.424Z,10.17
2022-11-05T03:55:17.384Z,10.06
2022-11-05T03:56:17.352Z,10.10
2022-11-05T03:57:17.331Z,10.06
2022-11-05T03:58:17.309Z,10.06
2022-11-05T03:59:17.281Z,10.10
2022-11-05T04:00:17.277Z,10.10
2022-11-05T04:01:17.557Z,10.06
2022-11-05T04:02:17.372Z,10.06
2022-11-05T04:03:17.199Z,10.03
2022-11-05T04:04:17.167Z,10.10
2022-11-05T04:05:17.151Z,10.03
2022-11-05T04:06:17.136Z,10.04
2022-11-05T04:07:17.095Z,10.15
2022-11-05T04:08:17.069Z,10.15
2022-11-05T04:09:17.053Z,10.12
2022-11-05T04:10:17.039Z,10.14
2022-11-05T04:11:17.009Z,10.12
2022-11-05T04:12:16.989Z,10.14
2022-11-05T04:13:16.963Z,10.14
2022-11-05T04:14:16.926Z,10.15
2022-11-05T04:15:16.898Z,10.07
2022-11-05T04:16:16.878Z,10.17
2022-11-05T04:17:16.952Z,10.14
2022-11-05T04:18:16.831Z,10.14
2022-11-05T04:19:16.802Z,10.09
2022-11-05T04:20:16.786Z,10.10
2022-11-05T04:21:16.763Z,10.15
2022-11-05T04:22:16.732Z,10.18
2022-11-05T04:23:16.716Z,10.17
2022-11-05T04:24:16.702Z,10.15
2022-11-05T04:25:16.671Z,10.21
2022-11-05T04:26:16.641Z,10.15
2022-11-05T04:27:16.612Z,10.21
2022-11-05T04:28:16.599Z,10.21
2022-11-05T04:29:16.577Z,10.12
2022-11-05T04:30:16.545Z,10.19
2022-11-05T04:31:16.531Z,10.15
2022-11-05T04:32:16.498Z,10.21
2022-11-05T04:33:16.479Z,10.17
2022-11-05T04:34:16.475Z,10.14
2022-11-05T04:35:16.445Z,10.18
2022-11-05T04:36:16.408Z,10.18
2022-11-05T04:37:16.380Z,10.18
2022-11-05T04:38:16.358Z,10.19
2022-11-05T04:39:16.329Z,10.14
2022-11-05T04:40:16.312Z,10.09
2022-11-05T04:41:16.282Z,10.25
2022-11-05T04:42:16.258Z,10.21
2022-11-05T04:43:16.654Z,10.22
2022-11-05T04:44:16.216Z,10.18
2022-11-05T04:45:16.188Z,10.22
2022-11-05T04:46:16.168Z,10.12
2022-11-05T04:47:16.137Z,10.22
2022-11-05T04:48:16.125Z,10.17
2022-11-05T04:49:16.100Z,10.18
2022-11-05T04:50:16.086Z,10.14
2022-11-05T04:51:16.043Z,10.17
2022-11-05T04:52:16.022Z,10.21
2022-11-05T04:53:16.002Z,10.17
2022-11-05T04:54:15.977Z,10.21
2022-11-05T04:55:15.952Z,10.24
2022-11-05T04:56:15.930Z,10.21
2022-11-05T04:57:15.904Z,10.25
2022-11-05T04:58:15.887Z,10.10
2022-11-05T04:59:15.854Z,10.25
2022-11-05T05:00:15.835Z,10.22
2022-11-05T05:01:16.049Z,10.12
2022-11-05T05:02:15.864Z,10.24
2022-11-05T05:03:15.768Z,10.07
2022-11-05T05:04:15.732Z,10.14
2022-11-05T05:05:15.712Z,10.18
2022-11-05T05:06:15.697Z,10.17
2022-11-05T05:07:15.668Z,10.14
2022-11-05T05:08:15.640Z,10.09
2022-11-05T05:09:15.614Z,10.17
2022-11-05T05:10:15.592Z,10.18
2022-11-05T05:11:15.570Z,10.12
2022-11-05T05:12:15.548Z,10.15
2022-11-05T05:13:15.526Z,10.07
2022-11-05T05:14:15.502Z,10.10
2022-11-05T05:15:15.473Z,10.12
2022-11-05T05:16:15.446Z,10.09
2022-11-05T05:17:15.433Z,10.07
2022-11-05T05:18:15.413Z,10.06
2022-11-05T05:19:15.377Z,10.01
2022-11-05T05:20:15.361Z,10.04
2022-11-05T05:21:15.429Z,10.07
2022-11-05T05:22:15.312Z,10.00
2022-11-05T05:23:15.276Z,9.99
2022-11-05T05:24:15.259Z,9.96
2022-11-05T05:25:15.236Z,10.01
2022-11-05T05:26:15.214Z,9.99
2022-11-05T05:27:15.187Z,9.99
2022-11-05T05:28:15.167Z,9.97
2022-11-05T05:29:15.139Z,9.94
2022-11-05T05:30:15.115Z,9.99
2022-11-05T05:31:15.093Z,9.96
2022-11-05T05:32:15.068Z,9.97
2022-11-05T05:33:15.111Z,9.86
2022-11-05T05:34:15.824Z,9.97
2022-11-05T05:35:15.013Z,9.86
2022-11-05T05:36:15.020Z,9.94
2022-11-05T05:37:15.010Z,9.86
2022-11-05T05:38:14.954Z,9.94
2022-11-05T05:39:14.934Z,9.85
2022-11-05T05:40:14.904Z,9.89
2022-11-05T05:41:14.853Z,9.89
2022-11-05T05:42:14.834Z,9.93
2022-11-05T05:43:14.818Z,9.99
2022-11-05T05:44:14.781Z,10.00
2022-11-05T05:45:14.759Z,10.01
2022-11-05T05:46:14.739Z,9.86
2022-11-05T05:47:14.723Z,9.97
2022-11-05T05:48:14.687Z,9.97
2022-11-05T05:49:14.669Z,9.99
2022-11-05T05:50:14.639Z,9.97
2022-11-05T05:51:14.617Z,9.97
2022-11-05T05:52:14.590Z,9.99
2022-11-05T05:53:14.571Z,9.94
2022-11-05T05:54:14.542Z,9.96
2022-11-05T05:55:14.519Z,9.97
2022-11-05T05:56:14.497Z,9.96
2022-11-05T05:57:14.470Z,10.06
2022-11-05T05:58:14.449Z,9.96
2022-11-05T05:59:14.426Z,10.01
2022-11-05T06:00:14.399Z,10.01
2022-11-05T06:01:18.984Z,9.99
2022-11-05T06:02:14.462Z,9.97
2022-11-05T06:03:14.657Z,9.96
2022-11-05T06:04:14.304Z,9.94
2022-11-05T06:05:14.281Z,10.03
2022-11-05T06:06:14.256Z,10.01
2022-11-05T06:07:14.242Z,10.01
2022-11-05T06:08:14.212Z,10.03
2022-11-05T06:09:14.193Z,10.01
2022-11-05T06:10:14.271Z,10.06
2022-11-05T06:11:14.136Z,10.09
2022-11-05T06:12:14.117Z,10.03
2022-11-05T06:13:14.216Z,10.10
2022-11-05T06:14:14.077Z,10.03
2022-11-05T06:15:14.041Z,10.04
2022-11-05T06:16:14.025Z,10.04
2022-11-05T06:17:14.017Z,10.06
2022-11-05T06:18:13.967Z,10.09
2022-11-05T06:19:13.946Z,10.04
2022-11-05T06:20:13.925Z,9.97
2022-11-05T06:21:13.899Z,10.07
2022-11-05T06:22:13.887Z,10.06
2022-11-05T06:23:14.062Z,9.99
2022-11-05T06:24:13.826Z,10.03
2022-11-05T06:25:13.802Z,10.07
2022-11-05T06:26:13.779Z,10.01
2022-11-05T06:27:13.752Z,10.06
2022-11-05T06:28:13.743Z,10.01
2022-11-05T06:29:13.715Z,10.00
2022-11-05T06:30:13.687Z,9.97
2022-11-05T06:31:13.658Z,10.00
2022-11-05T06:32:13.635Z,10.00
2022-11-05T06:33:13.819Z,9.99
2022-11-05T06:34:13.588Z,9.93
2022-11-05T06:35:13.562Z,9.99
2022-11-05T06:36:13.533Z,10.04
2022-11-05T06:37:13.571Z,10.01
2022-11-05T06:38:13.488Z,10.01
2022-11-05T06:39:13.465Z,9.99
2022-11-05T06:40:13.442Z,9.96
2022-11-05T06:41:13.422Z,9.94
2022-11-05T06:42:20.558Z,10.00
2022-11-05T06:43:13.906Z,9.94
2022-11-05T06:44:13.348Z,9.97
2022-11-05T06:45:13.324Z,9.91
2022-11-05T06:46:13.298Z,9.81
2022-11-05T06:47:13.269Z,9.89
2022-11-05T06:48:13.252Z,9.85
2022-11-05T06:49:13.226Z,9.82
2022-11-05T06:50:13.203Z,9.78
2022-11-05T06:51:13.201Z,9.75
2022-11-05T06:52:13.155Z,9.76
2022-11-05T06:53:13.461Z,9.75
2022-11-05T06:54:13.101Z,9.75
2022-11-05T06:55:13.077Z,9.83
2022-11-05T06:56:13.061Z,9.85
2022-11-05T06:57:13.036Z,9.83
2022-11-05T06:58:13.012Z,9.86
2022-11-05T06:59:12.984Z,9.86
2022-11-05T07:00:12.965Z,9.85
2022-11-05T07:01:13.009Z,9.85
2022-11-05T07:02:13.004Z,9.88
2022-11-05T07:03:13.350Z,9.78
2022-11-05T07:04:12.860Z,9.85
2022-11-05T07:05:12.844Z,9.78
2022-11-05T07:06:12.816Z,9.86
2022-11-05T07:07:12.788Z,9.82
2022-11-05T07:08:12.790Z,9.79
2022-11-05T07:09:12.750Z,9.83
2022-11-05T07:10:12.725Z,9.88
2022-11-05T07:11:12.693Z,9.73
2022-11-05T07:12:12.670Z,9.76
2022-11-05T07:13:13.089Z,9.71
2022-11-05T07:14:12.621Z,9.70
2022-11-05T07:15:12.598Z,9.76
2022-11-05T07:16:12.581Z,9.73
2022-11-05T07:17:12.553Z,9.75
2022-11-05T07:18:12.526Z,9.79
2022-11-05T07:19:12.503Z,9.82
2022-11-05T07:20:12.490Z,9.70
2022-11-05T07:21:12.460Z,9.81
2022-11-05T07:22:12.432Z,9.78
2022-11-05T07:23:12.772Z,9.88
2022-11-05T07:24:12.381Z,9.83
2022-11-05T07:25:12.387Z,9.78
2022-11-05T07:26:12.343Z,9.70
2022-11-05T07:27:12.313Z,9.68
2022-11-05T07:28:12.289Z,9.81
2022-11-05T07:29:12.283Z,9.79
2022-11-05T07:30:12.257Z,9.75
2022-11-05T07:31:12.218Z,9.83
2022-11-05T07:32:12.199Z,9.83
2022-11-05T07:33:12.603Z,9.83
2022-11-05T07:34:12.148Z,9.82
2022-11-05T07:35:12.121Z,9.89
2022-11-05T07:36:12.099Z,9.85
2022-11-05T07:37:12.074Z,9.82
2022-11-05T07:38:12.053Z,9.94
2022-11-05T07:39:12.025Z,9.97
2022-11-05T07:40:12.003Z,9.93
2022-11-05T07:41:11.980Z,9.97
2022-11-05T07:42:11.953Z,9.99
2022-11-05T07:43:12.204Z,9.96
2022-11-05T07:44:11.912Z,9.97
2022-11-05T07:45:11.889Z,10.01
2022-11-05T07:46:13.924Z,9.99
2022-11-05T07:47:11.840Z,9.97
2022-11-05T07:48:11.829Z,9.97
2022-11-05T07:49:11.787Z,9.93
2022-11-05T07:50:11.777Z,10.03
2022-11-05T07:51:11.740Z,10.01
2022-11-05T07:52:11.716Z,10.10
2022-11-05T07:53:12.117Z,10.00
2022-11-05T07:54:11.669Z,9.97
2022-11-05T07:55:11.641Z,9.99
2022-11-05T07:56:11.624Z,10.09
2022-11-05T07:57:11.596Z,10.07
2022-11-05T07:58:11.579Z,10.12
2022-11-05T07:59:11.552Z,10.15
2022-11-05T08:00:11.526Z,10.12
2022-11-05T08:01:11.658Z,10.10
2022-11-05T08:02:11.769Z,10.17
2022-11-05T08:03:11.959Z,10.24
2022-11-05T08:04:11.435Z,10.26
2022-11-05T08:05:11.407Z,10.26
2022-11-05T08:06:11.393Z,10.28
2022-11-05T08:07:11.364Z,10.33
2022-11-05T08:08:11.349Z,10.24
2022-11-05T08:09:11.312Z,10.28
2022-11-05T08:10:11.289Z,10.26
2022-11-05T08:11:11.272Z,10.33
2022-11-05T08:12:11.260Z,10.40
2022-11-05T08:13:11.735Z,10.33
2022-11-05T08:14:11.200Z,10.26
2022-11-05T08:15:11.185Z,10.22
2022-11-05T08:16:11.162Z,10.30
2022-11-05T08:17:15.923Z,10.33
2022-11-05T08:18:11.098Z,10.30
2022-11-05T08:19:11.077Z,10.28
2022-11-05T08:20:11.061Z,10.24
2022-11-05T08:21:11.034Z,10.25
2022-11-05T08:22:11.033Z,10.22
2022-11-05T08:23:11.416Z,10.25
2022-11-05T08:24:10.975Z,10.18
2022-11-05T08:25:10.942Z,10.15
2022-11-05T08:29:49.125Z,10.25
2022-11-05T08:30:15.007Z,10.14
2022-11-05T08:31:14.993Z,10.14
2022-11-05T08:32:14.960Z,10.28
2022-11-05T08:33:15.305Z,10.15
2022-11-05T08:34:14.912Z,10.19
2022-11-05T08:35:14.888Z,10.28
2022-11-05T08:36:14.866Z,10.26
2022-11-05T08:37:14.848Z,10.24
2022-11-05T08:38:14.817Z,10.17
2022-11-05T08:39:17.076Z,10.22
2022-11-05T08:40:14.768Z,10.26
2022-11-05T08:41:14.746Z,10.25
2022-11-05T08:42:14.726Z,10.19
2022-11-05T08:43:15.015Z,10.26
2022-11-05T08:44:14.680Z,10.24
2022-11-05T08:45:14.655Z,10.19
2022-11-05T08:46:14.632Z,10.22
2022-11-05T08:47:14.608Z,10.22
2022-11-05T08:48:14.661Z,10.32
2022-11-05T08:49:14.559Z,10.33
2022-11-05T08:50:14.536Z,10.46
2022-11-05T08:51:14.515Z,10.37
2022-11-05T08:52:14.487Z,10.46
2022-11-05T08:53:14.867Z,10.52
2022-11-05T08:54:14.444Z,10.55
2022-11-05T08:55:14.416Z,10.47
2022-11-05T08:56:14.405Z,10.40
2022-11-05T08:57:14.373Z,10.37
2022-11-05T08:58:14.349Z,10.33
2022-11-05T08:59:14.325Z,10.32
2022-11-05T09:00:14.302Z,10.34
2022-11-05T09:01:14.317Z,10.28
2022-11-05T09:02:14.378Z,10.33
2022-11-05T09:03:14.555Z,10.37
2022-11-05T09:04:14.207Z,10.40
2022-11-05T09:05:14.184Z,10.40
2022-11-05T09:06:14.161Z,10.51
2022-11-05T09:07:14.139Z,10.46
2022-11-05T09:08:14.114Z,10.47
2022-11-05T09:09:14.094Z,10.56
2022-11-05T09:10:14.091Z,10.51
2022-11-05T09:11:14.046Z,10.51
2022-11-05T09:12:14.019Z,10.46
2022-11-05T09:13:18.956Z,10.55
2022-11-05T09:14:13.972Z,10.59
2022-11-05T09:15:13.956Z,10.59
2022-11-05T09:16:13.929Z,10.55
2022-11-05T09:17:13.902Z,10.63
2022-11-05T09:18:13.886Z,10.55
2022-11-05T09:19:13.852Z,10.66
2022-11-05T09:20:13.939Z,10.56
2022-11-05T09:21:13.807Z,10.63
2022-11-05T09:22:13.784Z,10.55
2022-11-05T09:23:13.958Z,10.56
2022-11-05T09:24:13.742Z,10.60
2022-11-05T09:25:13.716Z,10.46
2022-11-05T09:26:13.687Z,10.58
2022-11-05T09:27:13.670Z,10.58
2022-11-05T09:28:16.732Z,10.66
2022-11-05T09:29:14.643Z,10.66
2022-11-05T09:30:13.681Z,10.80
2022-11-05T09:31:13.577Z,10.84
2022-11-05T09:32:13.555Z,10.94
2022-11-05T09:33:13.824Z,10.94
2022-11-05T09:34:13.506Z,11.02
2022-11-05T09:35:13.752Z,10.99
2022-11-05T09:36:13.466Z,10.86
2022-11-05T09:37:13.444Z,10.83
2022-11-05T09:38:13.416Z,10.92
2022-11-05T09:39:13.391Z,10.98
2022-11-05T09:40:13.369Z,11.07
2022-11-05T09:41:13.350Z,11.02
2022-11-05T09:42:13.320Z,11.06
2022-11-05T09:43:13.648Z,10.95
2022-11-05T09:44:13.275Z,10.80
2022-11-05T09:45:13.268Z,10.81
2022-11-05T09:46:13.231Z,10.81
2022-11-05T09:47:13.206Z,10.99
2022-11-05T09:48:13.187Z,11.10
2022-11-05T09:49:13.170Z,11.24
2022-11-05T09:50:13.174Z,11.35
2022-11-05T09:51:13.137Z,11.43
2022-11-05T09:52:13.100Z,11.54
2022-11-05T09:53:13.367Z,11.52
2022-11-05T09:54:13.057Z,11.56
2022-11-05T09:55:13.027Z,11.57
2022-11-05T09:56:13.012Z,11.54
2022-11-05T09:57:12.977Z,11.62
2022-11-05T09:58:12.959Z,11.56
2022-11-05T09:59:12.947Z,11.70
2022-11-05T10:00:12.927Z,11.80
2022-11-05T10:01:12.954Z,11.87
2022-11-05T10:02:12.953Z,11.87
2022-11-05T10:03:13.271Z,11.87
2022-11-05T10:04:12.838Z,11.93
2022-11-05T10:05:12.846Z,12.09
2022-11-05T10:06:12.797Z,12.23
2022-11-05T10:07:12.761Z,12.27
2022-11-05T10:08:12.739Z,12.12
2022-11-05T10:09:12.712Z,12.08
2022-11-05T10:10:12.692Z,12.20
2022-11-05T10:11:12.667Z,12.19
2022-11-05T10:12:12.655Z,11.85
2022-11-05T10:13:13.060Z,11.77
2022-11-05T10:14:12.603Z,11.72
2022-11-05T10:15:12.582Z,11.68
2022-11-05T10:16:12.559Z,11.80
2022-11-05T10:17:12.542Z,11.86
2022-11-05T10:18:12.513Z,11.90
2022-11-05T10:19:12.498Z,11.94
2022-11-05T10:20:12.474Z,12.01
2022-11-05T10:21:12.450Z,12.04
2022-11-05T10:22:12.433Z,11.89
2022-11-05T10:23:12.717Z,11.99
2022-11-05T10:24:12.391Z,11.99
2022-11-05T10:25:12.368Z,11.99
2022-11-05T10:26:12.344Z,11.94
2022-11-05T10:27:12.358Z,11.99
2022-11-05T10:28:12.308Z,12.02
2022-11-05T10:29:12.283Z,12.09
2022-11-05T10:30:12.261Z,12.12
2022-11-05T10:31:12.234Z,12.21
2022-11-05T10:32:12.217Z,12.27
2022-11-05T10:33:12.430Z,12.51
2022-11-05T10:34:12.184Z,12.51
2022-11-05T10:35:12.151Z,12.49
2022-11-05T10:36:12.126Z,12.27
2022-11-05T10:37:12.104Z,12.26
2022-11-05T10:38:12.084Z,12.44
2022-11-05T10:39:12.057Z,12.42
2022-11-05T10:40:12.050Z,12.30
2022-11-05T10:41:12.019Z,12.33
2022-11-05T10:42:11.993Z,12.27
2022-11-05T10:43:12.414Z,12.15
2022-11-05T10:44:16.134Z,12.01
2022-11-05T10:45:11.932Z,11.97
2022-11-05T10:46:11.911Z,11.93
2022-11-05T10:47:11.888Z,11.89
2022-11-05T10:48:11.870Z,11.85
2022-11-05T10:49:11.846Z,11.89
2022-11-05T10:50:11.835Z,11.85
2022-11-05T10:51:11.811Z,11.90
2022-11-05T10:52:11.790Z,11.78
2022-11-05T10:53:12.139Z,11.80
2022-11-05T10:54:11.743Z,11.57
2022-11-05T10:55:11.726Z,11.57
2022-11-05T10:56:11.697Z,11.49
2022-11-05T10:57:11.669Z,11.59
2022-11-05T10:58:11.654Z,11.62
2022-11-05T10:59:12.393Z,11.74
2022-11-05T11:00:11.615Z,11.72
2022-11-05T11:01:11.660Z,11.70
2022-11-05T11:02:11.610Z,11.71
2022-11-05T11:03:11.819Z,11.75
2022-11-05T11:04:11.518Z,11.72
2022-11-05T11:05:11.495Z,11.85
2022-11-05T11:06:11.468Z,11.86
2022-11-05T11:07:11.463Z,11.86
2022-11-05T11:08:11.450Z,11.97
2022-11-05T11:09:11.441Z,12.01
2022-11-05T11:10:11.405Z,12.02
2022-11-05T11:11:11.364Z,12.20
2022-11-05T11:12:11.344Z,12.16
2022-11-05T11:13:11.635Z,12.21
2022-11-05T11:14:11.316Z,12.29
2022-11-05T11:15:11.272Z,12.24
2022-11-05T11:16:11.280Z,12.51
2022-11-05T11:17:11.226Z,12.64
2022-11-05T11:18:11.210Z,12.51
2022-11-05T11:19:11.187Z,12.48
2022-11-05T11:20:11.161Z,12.52
2022-11-05T11:21:11.169Z,12.49
2022-11-05T11:22:11.150Z,12.54
2022-11-05T11:23:11.410Z,12.42
2022-11-05T11:24:11.083Z,12.39
2022-11-05T11:25:11.063Z,12.39
2022-11-05T11:26:11.032Z,12.27
2022-11-05T11:27:11.010Z,12.26
2022-11-05T11:28:10.986Z,12.31
2022-11-05T11:29:10.978Z,12.27
2022-11-05T11:30:10.944Z,12.30
2022-11-05T11:31:10.919Z,12.20
2022-11-05T11:32:10.913Z,12.20
2022-11-05T11:33:11.107Z,12.04
2022-11-05T11:34:10.923Z,11.97
2022-11-05T11:35:10.832Z,12.02
2022-11-05T11:36:10.831Z,12.06
2022-11-05T11:37:14.076Z,12.04
2022-11-05T11:38:10.769Z,12.09
2022-11-05T11:39:10.744Z,12.15
2022-11-05T11:40:10.769Z,12.12
2022-11-05T11:41:10.783Z,12.12
2022-11-05T11:42:10.684Z,12.11
2022-11-05T11:43:10.953Z,12.02
2022-11-05T11:44:10.638Z,12.04
2022-11-05T11:45:10.614Z,11.99
2022-11-05T11:46:14.933Z,12.02
2022-11-05T11:47:10.572Z,11.96
2022-11-05T11:48:10.550Z,11.99
2022-11-05T11:49:10.522Z,12.01
2022-11-05T11:50:10.766Z,11.99
2022-11-05T11:51:10.497Z,11.90
2022-11-05T11:52:10.457Z,11.93
2022-11-05T11:53:10.801Z,11.90
2022-11-05T11:54:10.452Z,11.93
2022-11-05T11:55:10.399Z,11.93
2022-11-05T11:56:10.371Z,11.83
2022-11-05T11:57:14.278Z,11.77
2022-11-05T11:58:10.325Z,11.83
2022-11-05T11:59:10.307Z,11.82
2022-11-05T12:00:10.335Z,11.83
2022-11-05T12:01:10.258Z,11.75
2022-11-05T12:02:10.334Z,11.82
2022-11-05T12:03:10.275Z,11.68
2022-11-05T12:04:10.218Z,11.54
2022-11-05T12:05:10.390Z,11.52
2022-11-05T12:06:10.161Z,11.53
2022-11-05T12:07:10.133Z,11.50
2022-11-05T12:08:10.106Z,11.47
2022-11-05T12:09:10.082Z,11.47
2022-11-05T12:10:10.070Z,11.47
2022-11-05T12:11:10.047Z,11.46
2022-11-05T12:12:10.013Z,11.41
2022-11-05T12:13:10.302Z,11.35
2022-11-05T12:14:09.970Z,11.27
2022-11-05T12:15:09.947Z,11.27
2022-11-05T12:16:09.928Z,11.14
2022-11-05T12:17:09.902Z,11.03
2022-11-05T12:18:09.881Z,10.99
2022-11-05T12:19:09.854Z,11.07
2022-11-05T12:20:09.832Z,11.09
2022-11-05T12:21:09.806Z,10.99
2022-11-05T12:22:09.790Z,10.94
2022-11-05T12:23:10.028Z,10.78
2022-11-05T12:24:09.746Z,10.76
2022-11-05T12:25:09.933Z,10.65
2022-11-05T12:26:09.708Z,10.71
2022-11-05T12:27:09.675Z,10.60
2022-11-05T12:28:09.669Z,10.65
2022-11-05T12:29:18.987Z,10.59
2022-11-05T12:30:09.605Z,10.63
2022-11-05T12:31:09.581Z,10.59
2022-11-05T12:32:09.690Z,10.52
2022-11-05T12:33:09.976Z,10.56
2022-11-05T12:34:09.513Z,10.53
2022-11-05T12:35:09.514Z,10.53
2022-11-05T12:36:09.505Z,10.56
2022-11-05T12:37:09.470Z,10.55
2022-11-05T12:38:09.423Z,10.62
2022-11-05T12:39:09.407Z,10.68
2022-11-05T12:40:09.378Z,10.73
2022-11-05T12:41:09.354Z,10.77
2022-11-05T12:42:09.332Z,10.95
2022-11-05T12:43:11.925Z,11.25
2022-11-05T12:44:09.281Z,11.31
2022-11-05T12:45:09.276Z,11.52
2022-11-05T12:46:09.237Z,11.61
2022-11-05T12:47:09.212Z,11.64
2022-11-05T12:48:09.342Z,11.68
2022-11-05T12:49:09.165Z,11.67
2022-11-05T12:50:09.148Z,11.67
2022-11-05T12:51:09.123Z,11.67
2022-11-05T12:52:09.105Z,11.71
2022-11-05T12:53:09.315Z,11.87
2022-11-05T12:54:09.069Z,12.12
2022-11-05T12:55:09.042Z,12.41
2022-11-05T12:56:09.024Z,12.42
2022-11-05T12:57:08.991Z,12.24
2022-11-05T12:58:08.973Z,12.26
2022-11-05T12:59:08.961Z,12.31